Time;durP1;ratioP1;P1;durP2;ratioP2;P2;SDS_P1;SDS_P2;PMS_P1;PMS_P2;Temp;Humidity;BMP_temperature;BMP_pressure;BME280_temperature;BME280_humidity;BME280_pressure;Samples;Min_cycle;Max_cycle;Signal;HPM_P1;HPM_P2
2022/01/18 00:00:09;;;;;;;0.10;0.10;;;7.60;99.90;;;;;;5054358;28;20045;-85
2022/01/18 00:02:35;;;;;;;0.00;0.00;;;7.50;99.90;;;;;;5036900;28;20049;-85
2022/01/18 00:05:01;;;;;;;0.00;0.00;;;7.70;99.90;;;;;;5053549;28;20049;-85
2022/01/18 00:07:26;;;;;;;0.43;0.43;;;7.70;99.90;;;;;;5053806;28;20060;-85
2022/01/18 00:09:52;;;;;;;1.00;1.00;;;7.50;99.90;;;;;;5037073;28;20393;-85
2022/01/18 00:12:55;;;;;;;0.52;0.25;;;7.60;99.90;;;;;;5053248;28;20060;-85
2022/01/18 00:18:06;;;;;;;0.00;0.00;;;7.50;99.90;;;;;;5053893;28;20135;-85
2022/01/18 00:20:48;;;;;;;0.57;0.57;;;7.40;99.90;;;;;;5037029;28;20439;-85
2022/01/18 00:23:14;;;;;;;0.00;0.00;;;7.50;99.90;;;;;;5038037;28;20045;-85
2022/01/18 00:25:44;;;;;;;0.00;0.00;;;7.60;99.90;;;;;;5036886;28;20052;-85
2022/01/18 00:28:09;;;;;;;0.00;0.00;;;7.60;99.90;;;;;;5037238;28;20045;-85
2022/01/18 00:33:21;;;;;;;1.35;0.25;;;7.50;99.90;;;;;;5053529;28;20053;-85
2022/01/18 00:35:51;;;;;;;0.10;0.10;;;7.60;99.90;;;;;;5037375;28;20369;-85
2022/01/18 00:38:31;;;;;;;0.00;0.00;;;7.50;99.90;;;;;;5053675;28;20045;-85
2022/01/18 00:40:58;;;;;;;0.08;0.00;;;7.50;99.90;;;;;;5037180;28;20045;-85
2022/01/18 00:43:24;;;;;;;0.00;0.00;;;7.80;99.90;;;;;;5036734;28;20105;-85
2022/01/18 00:45:50;;;;;;;3.38;0.35;;;7.80;99.90;;;;;;5053563;28;20060;-85
2022/01/18 00:48:17;;;;;;;0.00;0.00;;;7.50;99.90;;;;;;5053309;28;20049;-85
2022/01/18 00:50:44;;;;;;;1.33;0.38;;;7.60;99.90;;;;;;5053001;28;20049;-85
2022/01/18 00:53:13;;;;;;;1.75;1.13;;;7.50;99.90;;;;;;5053180;28;20045;-85
2022/01/18 00:55:50;;;;;;;0.10;0.10;;;7.50;99.90;;;;;;5052935;28;20053;-85
2022/01/18 00:58:16;;;;;;;0.30;0.30;;;7.40;99.90;;;;;;5036389;28;20074;-85
2022/01/18 01:00:44;;;;;;;13.35;1.35;;;7.50;99.90;;;;;;5036778;28;20044;-85
2022/01/18 01:03:10;;;;;;;0.20;0.20;;;7.60;99.90;;;;;;5036480;28;20044;-85
2022/01/18 01:05:36;;;;;;;0.00;0.00;;;7.50;99.90;;;;;;5052735;28;20045;-85
2022/01/18 01:08:02;;;;;;;0.15;0.15;;;7.40;99.90;;;;;;5052464;28;20037;-85
2022/01/18 01:10:29;;;;;;;2.83;0.70;;;7.40;99.90;;;;;;5052685;28;20158;-85
2022/01/18 01:12:55;;;;;;;0.20;0.20;;;7.40;99.90;;;;;;5035848;28;20055;-85
2022/01/18 01:15:24;;;;;;;1.98;0.20;;;7.50;99.90;;;;;;5052803;28;20044;-85
2022/01/18 01:34:37;;;;;;;1.27;1.02;;;7.40;99.90;;;;;;5053055;28;20473;-85
2022/01/18 01:44:56;;;;;;;0.00;0.00;;;7.50;99.90;;;;;;5052684;28;20045;-85
2022/01/18 01:47:33;;;;;;;0.00;0.00;;;6.90;99.90;;;;;;5035881;28;20044;-85
2022/01/18 01:49:59;;;;;;;0.47;0.28;;;7.30;99.90;;;;;;5052343;28;20045;-85
2022/01/18 01:52:25;;;;;;;0.22;0.22;;;7.30;99.90;;;;;;5035587;28;20044;-85
2022/01/18 01:54:53;;;;;;;0.45;0.45;;;7.20;99.90;;;;;;5035492;28;20053;-85
2022/01/18 01:57:19;;;;;;;14.60;1.42;;;7.20;99.90;;;;;;5035561;28;20044;-85
2022/01/18 01:59:45;;;;;;;1.83;0.30;;;7.30;99.90;;;;;;5052658;28;20041;-85
2022/01/18 02:02:13;;;;;;;0.00;0.00;;;7.20;99.90;;;;;;5035592;28;20476;-85
2022/01/18 02:04:39;;;;;;;1.20;0.57;;;7.20;99.90;;;;;;5051906;28;20103;-85
2022/01/18 02:07:05;;;;;;;0.00;0.00;;;7.20;99.90;;;;;;5052255;28;20084;-85
2022/01/18 02:09:31;;;;;;;0.00;0.00;;;7.10;99.90;;;;;;5052080;28;20037;-85
2022/01/18 02:12:00;;;;;;;0.10;0.10;;;7.00;99.90;;;;;;5035130;28;20048;-85
2022/01/18 02:14:27;;;;;;;1.35;0.73;;;7.30;99.90;;;;;;5035345;28;20148;-85
2022/01/18 02:22:22;;;;;;;0.00;0.00;;;6.90;99.90;;;;;;5051817;28;20055;-85
2022/01/18 02:24:48;;;;;;;0.10;0.10;;;7.40;99.90;;;;;;5034949;28;20128;-85
2022/01/18 02:27:14;;;;;;;0.10;0.10;;;7.00;99.90;;;;;;5052069;28;20081;-85
2022/01/18 02:29:40;;;;;;;0.00;0.00;;;7.10;99.90;;;;;;5035569;28;20049;-85
2022/01/18 02:32:07;;;;;;;0.00;0.00;;;7.00;99.90;;;;;;5055477;28;20095;-85
2022/01/18 02:34:33;;;;;;;0.35;0.35;;;7.00;99.90;;;;;;5038620;28;20511;-85
2022/01/18 02:36:59;;;;;;;0.13;0.13;;;7.00;99.90;;;;;;5055431;28;20045;-85
2022/01/18 02:39:27;;;;;;;0.15;0.15;;;7.30;99.90;;;;;;5038980;28;20049;-85
2022/01/18 02:41:58;;;;;;;9.32;0.28;;;7.00;99.90;;;;;;5038912;28;20051;-85
2022/01/18 02:44:25;;;;;;;0.30;0.30;;;7.10;99.90;;;;;;5039016;28;20044;-85
2022/01/18 02:46:51;;;;;;;0.00;0.00;;;7.00;99.90;;;;;;5039093;28;20083;-85
2022/01/18 02:49:17;;;;;;;0.00;0.00;;;7.40;99.90;;;;;;5038518;28;20557;-85
2022/01/18 02:51:43;;;;;;;8.90;0.98;;;7.00;99.90;;;;;;5055647;28;20367;-85
2022/01/18 02:54:12;;;;;;;12.07;1.08;;;7.20;99.90;;;;;;5038868;28;20162;-85
2022/01/18 02:56:47;;;;;;;1.23;0.47;;;6.90;99.90;;;;;;5055194;28;20056;-85
2022/01/18 03:04:27;;;;;;;0.00;0.00;;;6.70;99.90;;;;;;5055110;28;20041;-85
2022/01/18 03:06:53;;;;;;;0.32;0.20;;;6.80;99.90;;;;;;5038883;28;20154;-85
2022/01/18 03:09:19;;;;;;;1.45;0.65;;;6.70;99.90;;;;;;5055162;28;20049;-85
2022/01/18 03:11:45;;;;;;;0.13;0.13;;;6.60;99.90;;;;;;5054455;28;20092;-85
2022/01/18 03:14:11;;;;;;;0.32;0.32;;;6.80;99.90;;;;;;5037860;28;20438;-85
2022/01/18 03:16:38;;;;;;;0.00;0.00;;;6.90;99.90;;;;;;5054440;28;20043;-85
2022/01/18 03:19:04;;;;;;;1.25;0.32;;;6.60;99.90;;;;;;5054722;28;20076;-85
2022/01/18 03:21:30;;;;;;;0.00;0.00;;;6.60;99.90;;;;;;5037889;28;20483;-85
2022/01/18 03:24:11;;;;;;;0.00;0.00;;;6.70;99.90;;;;;;5054342;28;20136;-85
2022/01/18 03:28:04;;;;;;;3.72;0.93;;;6.60;99.90;;;;;;5038288;28;20049;-84
2022/01/18 03:29:25;;;;;;;0.75;0.38;;;6.70;99.90;;;;;;5054679;28;20049;-85
2022/01/18 03:31:50;;;;;;;0.00;0.00;;;6.60;99.90;;;;;;5037972;28;20049;-85
2022/01/18 03:34:16;;;;;;;0.00;0.00;;;7.00;99.90;;;;;;5054539;28;20102;-85
2022/01/18 03:36:42;;;;;;;0.00;0.00;;;6.90;99.90;;;;;;5054547;28;20056;-85
2022/01/18 03:39:08;;;;;;;0.10;0.10;;;6.60;99.90;;;;;;5054660;28;20504;-85
2022/01/18 03:41:33;;;;;;;0.00;0.00;;;6.60;99.90;;;;;;5054176;28;20130;-85
2022/01/18 03:43:59;;;;;;;0.00;0.00;;;6.70;99.90;;;;;;5037017;28;20472;-85
2022/01/18 03:46:25;;;;;;;3.53;0.85;;;6.70;99.90;;;;;;5054534;28;20045;-85
2022/01/18 03:48:52;;;;;;;0.00;0.00;;;6.60;99.90;;;;;;5054236;28;20052;-85
2022/01/18 03:51:18;;;;;;;0.00;0.00;;;6.60;99.90;;;;;;5053941;28;20049;-85
2022/01/18 03:53:44;;;;;;;0.75;0.75;;;7.00;99.90;;;;;;5037739;28;20055;-85
2022/01/18 03:56:10;;;;;;;0.13;0.13;;;6.60;99.90;;;;;;5037810;28;20049;-85
2022/01/18 03:58:36;;;;;;;0.00;0.00;;;6.60;99.90;;;;;;5037268;28;20135;-85
2022/01/18 04:01:03;;;;;;;0.22;0.22;;;6.90;99.90;;;;;;5037653;28;20052;-85
2022/01/18 04:03:29;;;;;;;2.75;0.52;;;6.80;99.90;;;;;;5037468;28;20048;-85
2022/01/18 04:05:56;;;;;;;0.75;0.10;;;6.60;99.90;;;;;;5054030;28;20103;-85
2022/01/18 04:08:22;;;;;;;0.00;0.00;;;8.20;99.90;;;;;;5053916;28;20051;-85
2022/01/18 04:10:49;;;;;;;0.00;0.00;;;6.70;99.90;;;;;;5037133;28;20045;-85
2022/01/18 04:13:15;;;;;;;0.00;0.00;;;6.90;99.90;;;;;;5053845;28;20044;-85
2022/01/18 04:15:41;;;;;;;0.28;0.28;;;7.70;99.90;;;;;;5036753;28;20132;-85
2022/01/18 04:18:34;;;;;;;0.00;0.00;;;6.60;99.90;;;;;;5053617;28;20061;-85
2022/01/18 04:28:58;;;;;;;0.00;0.00;;;6.60;99.90;;;;;;5054332;28;20053;-85
2022/01/18 04:31:25;;;;;;;0.00;0.00;;;7.30;99.90;;;;;;5036795;28;20493;-85
2022/01/18 04:33:51;;;;;;;1.15;0.43;;;6.70;99.90;;;;;;5037129;28;20103;-85
2022/01/18 04:36:17;;;;;;;0.00;0.00;;;7.60;99.90;;;;;;5053594;28;20049;-85
2022/01/18 04:38:43;;;;;;;12.88;0.90;;;6.50;99.90;;;;;;5052938;28;20128;-85
2022/01/18 04:41:13;;;;;;;0.00;0.00;;;6.50;99.90;;;;;;5036223;28;20045;-85
2022/01/18 04:48:53;;;;;;;0.00;0.00;;;6.40;99.90;;;;;;5053272;28;20136;-85
2022/01/18 04:51:18;;;;;;;0.00;0.00;;;6.50;99.90;;;;;;5036478;28;20140;-86
2022/01/18 04:53:53;;;;;;;0.00;0.00;;;6.50;99.90;;;;;;5035522;28;20041;-85
2022/01/18 04:57:51;;;;;;;0.00;0.00;;;8.00;99.90;;;;;;5037779;28;20388;-85
2022/01/18 04:59:14;;;;;;;0.13;0.13;;;6.50;99.90;;;;;;5053275;28;20053;-85
2022/01/18 05:01:41;;;;;;;0.00;0.00;;;6.60;99.90;;;;;;5036463;28;20111;-85
2022/01/18 05:04:07;;;;;;;0.00;0.00;;;6.50;99.90;;;;;;5037060;28;20045;-85
2022/01/18 05:06:34;;;;;;;2.33;1.05;;;6.60;99.90;;;;;;5052328;28;20036;-85
2022/01/18 05:09:06;;;;;;;1.40;0.75;;;7.60;99.90;;;;;;5052316;28;20052;-85
2022/01/18 05:11:36;;;;;;;0.00;0.00;;;6.50;99.90;;;;;;5036100;28;20063;-86
2022/01/18 05:19:37;;;;;;;0.00;0.00;;;6.90;99.90;;;;;;5053020;28;20045;-85
2022/01/18 05:24:32;;;;;;;0.00;0.00;;;6.50;99.90;;;;;;5052816;28;20136;-85
2022/01/18 05:27:00;;;;;;;0.00;0.00;;;6.60;99.90;;;;;;5052516;28;20199;-86
2022/01/18 05:29:26;;;;;;;0.00;0.00;;;6.60;99.90;;;;;;5053047;28;20404;-86
2022/01/18 05:31:53;;;;;;;0.00;0.00;;;6.60;99.90;;;;;;5035674;28;20053;-85
2022/01/18 05:34:19;;;;;;;0.00;0.00;;;6.60;99.90;;;;;;5052382;28;20045;-85
2022/01/18 05:36:45;;;;;;;0.00;0.00;;;6.60;99.90;;;;;;5035954;28;20507;-85
2022/01/18 05:39:11;;;;;;;0.00;0.00;;;6.60;99.90;;;;;;5035999;28;20103;-86
2022/01/18 05:41:39;;;;;;;0.00;0.00;;;6.80;99.90;;;;;;5035315;28;20049;-85
2022/01/18 05:44:05;;;;;;;0.10;0.10;;;6.60;99.90;;;;;;5052895;28;20148;-85
2022/01/18 05:46:32;;;;;;;0.75;0.45;;;6.60;99.90;;;;;;5052363;28;20052;-85
2022/01/18 05:49:00;;;;;;;0.00;0.00;;;6.70;99.90;;;;;;5035580;28;20051;-85
2022/01/18 05:51:28;;;;;;;0.00;0.00;;;6.60;99.90;;;;;;5035792;28;20435;-85
2022/01/18 05:53:54;;;;;;;0.00;0.00;;;6.60;99.90;;;;;;5035573;28;20045;-85
2022/01/18 05:56:19;;;;;;;0.00;0.00;;;6.60;99.90;;;;;;5052203;28;20139;-85
2022/01/18 05:58:48;;;;;;;0.00;0.00;;;6.60;99.90;;;;;;5052210;28;20080;-85
2022/01/18 06:01:21;;;;;;;0.00;0.00;;;8.30;99.90;;;;;;5052156;28;20481;-85
2022/01/18 06:09:05;;;;;;;0.00;0.00;;;6.60;99.90;;;;;;5056421;28;20481;-85
2022/01/18 06:11:31;;;;;;;0.20;0.20;;;6.60;99.90;;;;;;5038644;28;20088;-86
2022/01/18 06:13:57;;;;;;;0.00;0.00;;;7.00;99.90;;;;;;5056016;28;20091;-85
2022/01/18 06:16:22;;;;;;;0.00;0.00;;;6.90;99.90;;;;;;5039384;28;20053;-85
2022/01/18 06:18:48;;;;;;;0.00;0.00;;;6.40;99.90;;;;;;5055917;28;20531;-84
2022/01/18 06:21:14;;;;;;;0.10;0.10;;;6.80;99.90;;;;;;5039195;28;20078;-85
2022/01/18 06:23:39;;;;;;;0.00;0.00;;;6.60;99.90;;;;;;5056406;28;20098;-85
2022/01/18 06:26:05;;;;;;;0.25;0.15;;;6.60;99.90;;;;;;5056091;28;20045;-84
2022/01/18 06:28:32;;;;;;;2.35;0.28;;;6.70;99.90;;;;;;5056033;28;20072;-84
2022/01/18 06:30:58;;;;;;;0.00;0.00;;;6.60;99.90;;;;;;5039238;28;20400;-84
2022/01/18 06:33:26;;;;;;;0.20;0.00;;;6.60;99.90;;;;;;5039030;28;20052;-84
2022/01/18 06:35:52;;;;;;;0.80;0.45;;;7.20;99.90;;;;;;5055507;28;20146;-84
2022/01/18 06:38:17;;;;;;;0.00;0.00;;;6.60;99.90;;;;;;5055808;28;20247;-84
2022/01/18 06:40:45;;;;;;;0.00;0.00;;;6.60;99.90;;;;;;5039110;28;20060;-84
2022/01/18 06:43:10;;;;;;;0.10;0.10;;;6.60;99.90;;;;;;5056100;28;20067;-84
2022/01/18 06:45:36;;;;;;;0.00;0.00;;;6.60;99.90;;;;;;5038900;28;20128;-85
2022/01/18 06:48:02;;;;;;;0.00;0.00;;;6.60;99.90;;;;;;5055319;28;20037;-84
2022/01/18 06:50:28;;;;;;;0.00;0.00;;;6.50;99.90;;;;;;5039439;28;20052;-84
2022/01/18 06:52:53;;;;;;;0.00;0.00;;;6.50;99.90;;;;;;5039014;28;20144;-84
2022/01/18 06:55:19;;;;;;;0.00;0.00;;;6.70;99.90;;;;;;5054943;28;20044;-84
2022/01/18 06:57:45;;;;;;;0.00;0.00;;;6.80;99.90;;;;;;5055070;28;20037;-84
2022/01/18 07:00:11;;;;;;;0.00;0.00;;;8.20;99.90;;;;;;5054886;28;20396;-84
2022/01/18 07:02:37;;;;;;;0.00;0.00;;;6.50;99.90;;;;;;5055062;28;20393;-84
2022/01/18 07:05:03;;;;;;;0.00;0.00;;;6.50;99.90;;;;;;5037944;28;20049;-84
2022/01/18 07:07:29;;;;;;;0.47;0.13;;;6.50;99.90;;;;;;5054595;28;20079;-84
2022/01/18 07:09:56;;;;;;;2.65;1.08;;;6.40;99.90;;;;;;5038566;28;20056;-85
2022/01/18 07:12:23;;;;;;;0.98;0.98;;;6.50;99.90;;;;;;5037405;28;20203;-85
2022/01/18 07:14:48;;;;;;;0.00;0.00;;;6.70;99.90;;;;;;5054916;28;20079;-85
2022/01/18 07:17:14;;;;;;;0.00;0.00;;;6.40;99.90;;;;;;5053581;28;20544;-85
2022/01/18 07:19:40;;;;;;;0.10;0.10;;;6.40;99.90;;;;;;5038833;28;20057;-85
2022/01/18 07:22:06;;;;;;;0.00;0.00;;;6.40;99.90;;;;;;5055354;28;20487;-85
2022/01/18 07:24:41;;;;;;;0.00;0.00;;;6.40;99.90;;;;;;5055473;28;20047;-88
2022/01/18 07:27:10;;;;;;;0.00;0.00;;;6.40;99.90;;;;;;5038587;28;20084;-87
2022/01/18 07:29:37;;;;;;;0.00;0.00;;;6.40;99.90;;;;;;5038571;28;20143;-87
2022/01/18 07:32:04;;;;;;;0.00;0.00;;;6.40;99.90;;;;;;5038247;28;20049;-87
2022/01/18 07:34:34;;;;;;;0.00;0.00;;;6.40;99.90;;;;;;5038431;28;20049;-88
2022/01/18 07:37:02;;;;;;;0.00;0.00;;;6.60;99.90;;;;;;5055018;28;20102;-87
2022/01/18 07:39:28;;;;;;;0.00;0.00;;;6.40;99.90;;;;;;5055029;28;20155;-87
2022/01/18 07:41:53;;;;;;;0.00;0.00;;;6.60;99.90;;;;;;5038243;28;20132;-87
2022/01/18 07:44:19;;;;;;;0.00;0.00;;;6.40;99.90;;;;;;5038109;28;20504;-88
2022/01/18 07:46:45;;;;;;;1.95;0.60;;;6.50;99.90;;;;;;5038320;28;20388;-87
2022/01/18 07:49:11;;;;;;;0.00;0.00;;;6.60;99.90;;;;;;5037457;28;20045;-87
2022/01/18 07:51:36;;;;;;;0.40;0.25;;;6.50;99.90;;;;;;5054509;28;20073;-87
2022/01/18 07:54:02;;;;;;;0.00;0.00;;;6.50;99.90;;;;;;5037583;28;20052;-87
2022/01/18 07:56:28;;;;;;;2.45;0.93;;;6.50;99.90;;;;;;5037884;28;20038;-87
2022/01/18 07:58:54;;;;;;;0.00;0.00;;;6.50;99.90;;;;;;5037575;28;20041;-88
2022/01/18 08:01:20;;;;;;;0.00;0.00;;;6.50;99.90;;;;;;5054606;28;20170;-88
2022/01/18 08:03:45;;;;;;;0.00;0.00;;;6.50;99.90;;;;;;5054650;28;20048;-88
2022/01/18 08:06:11;;;;;;;0.00;0.00;;;6.80;99.90;;;;;;5038125;28;20052;-88
2022/01/18 08:08:39;;;;;;;0.32;0.00;;;6.60;99.90;;;;;;5054404;28;20070;-88
2022/01/18 08:11:06;;;;;;;0.00;0.00;;;6.80;99.90;;;;;;5054384;28;20060;-87
2022/01/18 08:13:38;;;;;;;0.00;0.00;;;6.50;99.90;;;;;;5037436;28;20052;-87
2022/01/18 08:16:46;;;;;;;0.00;0.00;;;6.60;99.90;;;;;;5038063;28;20041;-88
2022/01/18 08:19:09;;;;;;;0.20;0.00;;;6.40;99.90;;;;;;5054135;28;20056;-88
2022/01/18 08:21:37;;;;;;;0.00;0.00;;;6.50;99.90;;;;;;5053611;28;20091;-88
2022/01/18 08:24:03;;;;;;;0.00;0.00;;;6.50;99.90;;;;;;5053387;28;20052;-88
2022/01/18 08:26:29;;;;;;;0.00;0.00;;;6.50;99.90;;;;;;5054015;28;20129;-88
2022/01/18 08:28:55;;;;;;;0.00;0.00;;;6.90;99.90;;;;;;5036794;28;20059;-88
2022/01/18 08:31:20;;;;;;;0.00;0.00;;;6.50;99.90;;;;;;5053183;28;20102;-88
2022/01/18 08:33:47;;;;;;;2.45;1.00;;;6.50;99.90;;;;;;5037029;28;20114;-88
2022/01/18 08:36:13;;;;;;;0.00;0.00;;;6.50;99.90;;;;;;5036757;28;20138;-87
2022/01/18 08:38:40;;;;;;;0.00;0.00;;;6.60;99.90;;;;;;5036626;28;20492;-87
2022/01/18 08:41:06;;;;;;;1.85;0.38;;;6.60;99.90;;;;;;5036831;28;20048;-88
2022/01/18 08:43:36;;;;;;;0.20;0.20;;;6.60;99.90;;;;;;5036798;28;20041;-88
2022/01/18 08:46:03;;;;;;;0.00;0.00;;;6.50;99.90;;;;;;5037197;28;20041;-87
2022/01/18 08:48:29;;;;;;;0.55;0.00;;;7.70;99.90;;;;;;5036844;28;20052;-87
2022/01/18 08:50:56;;;;;;;0.00;0.00;;;6.60;99.90;;;;;;5036643;28;20049;-88
2022/01/18 08:53:22;;;;;;;2.05;0.00;;;6.70;99.90;;;;;;5053380;28;20041;-88
2022/01/18 08:55:48;;;;;;;0.10;0.00;;;6.60;99.90;;;;;;5053236;28;20049;-88
2022/01/18 08:58:15;;;;;;;0.00;0.00;;;6.70;99.90;;;;;;5036480;28;20048;-88
2022/01/18 09:00:41;;;;;;;0.00;0.00;;;6.60;99.90;;;;;;5053261;28;20053;-88
2022/01/18 09:03:09;;;;;;;0.20;0.10;;;6.90;99.90;;;;;;5036402;28;20056;-88
2022/01/18 09:05:37;;;;;;;0.35;0.20;;;6.50;99.90;;;;;;5035819;28;20512;-88
2022/01/18 09:08:06;;;;;;;0.00;0.00;;;6.80;99.90;;;;;;5052910;28;20049;-88
2022/01/18 09:10:32;;;;;;;0.00;0.00;;;6.50;99.90;;;;;;5036426;28;20087;-88
2022/01/18 09:12:58;;;;;;;0.00;0.00;;;6.40;99.90;;;;;;5036216;28;20096;-87
2022/01/18 09:15:26;;;;;;;0.08;0.08;;;6.90;99.90;;;;;;5052884;28;20508;-88
2022/01/18 09:17:52;;;;;;;0.00;0.00;;;6.60;99.90;;;;;;5036358;28;20396;-88
2022/01/18 09:20:18;;;;;;;0.00;0.00;;;6.60;99.90;;;;;;5052905;28;20545;-87
2022/01/18 09:22:46;;;;;;;0.00;0.00;;;6.60;99.90;;;;;;5053472;28;20056;-87
2022/01/18 09:25:22;;;;;;;0.00;0.00;;;6.80;99.90;;;;;;5035992;28;20091;-88
2022/01/18 09:27:48;;;;;;;0.00;0.00;;;6.70;99.90;;;;;;5036650;28;20135;-88
2022/01/18 09:30:15;;;;;;;0.00;0.00;;;7.30;99.90;;;;;;5052741;28;20041;-88
2022/01/18 09:32:45;;;;;;;0.00;0.00;;;6.70;99.90;;;;;;5035932;28;20049;-88
2022/01/18 09:35:13;;;;;;;1.25;0.35;;;6.70;99.90;;;;;;5036395;28;20041;-88
2022/01/18 09:37:39;;;;;;;3.40;1.48;;;6.80;99.90;;;;;;5035847;28;20127;-88
2022/01/18 09:40:05;;;;;;;0.10;0.10;;;7.10;99.90;;;;;;5035558;28;20167;-88
2022/01/18 09:42:37;;;;;;;0.00;0.00;;;6.80;99.90;;;;;;5036133;28;20044;-88
2022/01/18 09:45:06;;;;;;;1.10;0.28;;;6.60;99.90;;;;;;5052079;28;20049;-88
2022/01/18 09:47:33;;;;;;;0.60;0.22;;;6.80;99.90;;;;;;5035863;28;20045;-88
2022/01/18 09:49:59;;;;;;;0.00;0.00;;;6.80;99.90;;;;;;5035839;28;20045;-88
2022/01/18 09:52:25;;;;;;;0.00;0.00;;;7.40;99.90;;;;;;5035675;28;20488;-87
2022/01/18 09:54:51;;;;;;;0.08;0.08;;;6.90;99.90;;;;;;5035672;28;20048;-88
2022/01/18 09:57:17;;;;;;;0.17;0.10;;;7.20;99.90;;;;;;5052355;28;20049;-88
2022/01/18 09:59:43;;;;;;;0.00;0.00;;;7.10;99.90;;;;;;5052315;28;20045;-88
2022/01/18 10:02:10;;;;;;;0.00;0.00;;;7.00;99.90;;;;;;5035988;28;20056;-88
2022/01/18 10:04:42;;;;;;;0.43;0.43;;;7.10;99.90;;;;;;5035837;28;20111;-88
2022/01/18 10:07:07;;;;;;;0.10;0.10;;;7.10;99.90;;;;;;5035518;28;20045;-87
2022/01/18 10:09:34;;;;;;;0.10;0.10;;;7.10;99.90;;;;;;5035627;28;20056;-88
2022/01/18 10:12:11;;;;;;;0.00;0.00;;;7.10;99.90;;;;;;5051643;28;20057;-88
2022/01/18 10:14:40;;;;;;;0.10;0.10;;;7.10;99.90;;;;;;5052924;28;20135;-88
2022/01/18 10:17:09;;;;;;;1.30;0.10;;;7.20;99.90;;;;;;5035795;28;20123;-88
2022/01/18 10:19:49;;;;;;;0.10;0.10;;;7.70;99.90;;;;;;5036021;28;20049;-87
2022/01/18 10:22:24;;;;;;;1.55;0.40;;;7.40;99.90;;;;;;5052178;28;20489;-87
2022/01/18 10:24:52;;;;;;;0.20;0.10;;;7.20;99.90;;;;;;5035646;28;20041;-87
2022/01/18 10:27:18;;;;;;;0.00;0.00;;;7.20;99.90;;;;;;5035634;28;20045;-88
2022/01/18 10:29:50;;;;;;;0.00;0.00;;;7.30;99.90;;;;;;5035735;28;20064;-88
2022/01/18 10:32:21;;;;;;;0.00;0.00;;;7.30;99.90;;;;;;5035379;28;20084;-87
2022/01/18 10:37:29;;;;;;;0.00;0.00;;;7.40;99.90;;;;;;5052005;28;20518;-88
2022/01/18 10:39:58;;;;;;;0.40;0.20;;;7.40;99.90;;;;;;5035426;28;20136;-87
2022/01/18 10:42:36;;;;;;;0.47;0.10;;;7.40;99.90;;;;;;5052517;28;20420;-87
2022/01/18 10:45:14;;;;;;;0.47;0.45;;;7.40;99.90;;;;;;5035281;28;20489;-88
2022/01/18 10:47:51;;;;;;;0.00;0.00;;;7.30;99.90;;;;;;5051940;28;20041;-88
2022/01/18 10:50:18;;;;;;;0.10;0.10;;;7.40;99.90;;;;;;5052307;28;20053;-87
2022/01/18 10:52:44;;;;;;;0.00;0.00;;;7.40;99.90;;;;;;5037138;28;20049;-88
2022/01/18 10:55:22;;;;;;;5.28;0.38;;;7.40;99.90;;;;;;5038629;28;20052;-87
2022/01/18 10:57:48;;;;;;;0.08;0.08;;;7.60;99.90;;;;;;5038931;28;20052;-87
2022/01/18 11:00:22;;;;;;;0.00;0.00;;;7.50;99.90;;;;;;5038347;28;20073;-87
2022/01/18 11:02:53;;;;;;;0.00;0.00;;;7.50;99.90;;;;;;5038981;28;20472;-87
2022/01/18 11:05:26;;;;;;;0.00;0.00;;;7.70;99.90;;;;;;5055375;28;20128;-87
2022/01/18 11:07:53;;;;;;;2.75;0.13;;;8.20;99.90;;;;;;5038342;28;20492;-88
2022/01/18 11:10:22;;;;;;;0.03;0.03;;;7.60;99.90;;;;;;5038416;28;20131;-87
2022/01/18 11:12:56;;;;;;;18.88;1.40;;;7.70;99.90;;;;;;5054622;28;20056;-88
2022/01/18 11:15:23;;;;;;;0.20;0.20;;;7.70;99.90;;;;;;5038133;28;20099;-87
2022/01/18 11:17:56;;;;;;;0.00;0.00;;;7.70;99.90;;;;;;5038381;28;20060;-87
2022/01/18 11:20:23;;;;;;;0.10;0.10;;;8.10;99.90;;;;;;5038720;28;20056;-88
2022/01/18 11:22:50;;;;;;;0.00;0.00;;;7.70;99.90;;;;;;5038236;28;20045;-87
2022/01/18 11:25:17;;;;;;;0.00;0.00;;;7.70;99.90;;;;;;5038091;28;20128;-88
2022/01/18 11:27:47;;;;;;;0.00;0.00;;;7.80;99.90;;;;;;5038347;28;20123;-87
2022/01/18 11:30:14;;;;;;;0.00;0.00;;;8.00;99.90;;;;;;5038189;28;20041;-88
2022/01/18 11:32:40;;;;;;;0.00;0.00;;;8.40;99.90;;;;;;5054561;28;20045;-88
2022/01/18 11:35:06;;;;;;;0.00;0.00;;;7.80;99.90;;;;;;5054550;28;20061;-87
2022/01/18 11:37:43;;;;;;;0.10;0.10;;;7.90;99.90;;;;;;5037857;28;20048;-88
2022/01/18 11:40:16;;;;;;;0.00;0.00;;;8.00;99.90;;;;;;5037888;28;20079;-87
2022/01/18 11:42:52;;;;;;;0.00;0.00;;;8.00;99.90;;;;;;5037806;28;20397;-87
2022/01/18 11:45:24;;;;;;;0.00;0.00;;;7.90;99.90;;;;;;5054502;28;20045;-87
2022/01/18 11:47:59;;;;;;;0.00;0.00;;;7.90;99.90;;;;;;5037808;28;20056;-87
2022/01/18 11:50:30;;;;;;;0.00;0.00;;;7.90;99.90;;;;;;5037652;28;20400;-87
2022/01/18 11:53:28;;;;;;;0.00;0.00;;;7.90;99.90;;;;;;5037491;28;20059;-87
2022/01/18 11:55:58;;;;;;;0.00;0.00;;;7.80;99.90;;;;;;5037660;28;20041;-87
2022/01/18 11:58:25;;;;;;;0.10;0.10;;;7.80;99.90;;;;;;5037663;28;20048;-88
2022/01/18 12:00:53;;;;;;;0.22;0.20;;;7.80;99.90;;;;;;5038232;28;20135;-88
2022/01/18 12:03:26;;;;;;;0.45;0.45;;;8.00;99.90;;;;;;5036843;28;20122;-87
2022/01/18 12:05:53;;;;;;;0.00;0.00;;;8.00;99.90;;;;;;5037079;28;20106;-87
2022/01/18 12:08:32;;;;;;;0.00;0.00;;;7.90;99.90;;;;;;5037410;28;20049;-87
2022/01/18 12:10:58;;;;;;;0.00;0.00;;;7.90;99.90;;;;;;5037326;28;20044;-87
2022/01/18 12:13:27;;;;;;;0.00;0.00;;;7.90;99.90;;;;;;5036864;28;20049;-87
2022/01/18 12:15:56;;;;;;;0.03;0.03;;;7.90;99.90;;;;;;5037393;28;20060;-88
2022/01/18 12:18:29;;;;;;;0.00;0.00;;;7.90;99.90;;;;;;5037296;28;20409;-88
2022/01/18 12:21:04;;;;;;;0.00;0.00;;;8.00;99.90;;;;;;5037503;28;20091;-87
2022/01/18 12:23:34;;;;;;;0.00;0.00;;;8.00;99.90;;;;;;5053610;28;20052;-88
2022/01/18 12:26:28;;;;;;;0.00;0.00;;;8.20;99.90;;;;;;5037195;28;20397;-87
2022/01/18 12:29:18;;;;;;;0.00;0.00;;;7.90;99.90;;;;;;5037224;28;20562;-87
2022/01/18 12:34:34;;;;;;;0.00;0.00;;;7.90;99.90;;;;;;5053380;28;20076;-87
2022/01/18 12:37:13;;;;;;;0.00;0.00;;;9.00;99.90;;;;;;5036760;28;20049;-87
2022/01/18 12:45:13;;;;;;;0.00;0.00;;;7.80;99.90;;;;;;5053248;28;20504;-87
2022/01/18 12:47:43;;;;;;;0.00;0.00;;;7.70;99.90;;;;;;5036718;28;20111;-87
2022/01/18 12:50:17;;;;;;;0.00;0.00;;;7.70;99.90;;;;;;5036608;28;20041;-87
2022/01/18 12:52:46;;;;;;;0.00;0.00;;;7.90;99.90;;;;;;5053354;28;20051;-87
2022/01/18 12:55:35;;;;;;;0.00;0.00;;;7.70;99.90;;;;;;5053215;28;20080;-87
2022/01/18 12:58:06;;;;;;;0.03;0.03;;;7.60;99.90;;;;;;5053361;28;20506;-87
2022/01/18 13:00:49;;;;;;;0.00;0.00;;;7.60;99.90;;;;;;5036670;28;20140;-87
2022/01/18 13:03:24;;;;;;;0.00;0.00;;;7.70;99.90;;;;;;5036645;28;20056;-87
2022/01/18 13:05:57;;;;;;;0.00;0.00;;;8.00;99.90;;;;;;5036548;28;20037;-87
2022/01/18 13:08:29;;;;;;;0.00;0.00;;;7.70;99.90;;;;;;5036577;28;20052;-87
2022/01/18 13:10:55;;;;;;;0.10;0.10;;;7.60;99.90;;;;;;5036577;28;20051;-87
2022/01/18 13:13:28;;;;;;;0.10;0.10;;;7.70;99.90;;;;;;5035097;28;20059;-87
2022/01/18 13:26:50;;;;;;;0.00;0.00;;;7.50;99.90;;;;;;5052916;28;20053;-87
2022/01/18 13:29:22;;;;;;;0.00;0.00;;;7.50;99.90;;;;;;5036595;28;20434;-87
2022/01/18 13:32:00;;;;;;;0.00;0.00;;;7.60;99.90;;;;;;5036155;28;20139;-87
2022/01/18 13:34:34;;;;;;;0.00;0.00;;;7.40;99.90;;;;;;5052440;28;20400;-87
2022/01/18 13:37:03;;;;;;;0.00;0.00;;;7.60;99.90;;;;;;5035865;28;20477;-87
2022/01/18 13:39:39;;;;;;;0.00;0.00;;;7.60;99.90;;;;;;5052535;28;20088;-87
2022/01/18 13:42:09;;;;;;;0.00;0.00;;;7.50;99.90;;;;;;5036020;28;20106;-87
2022/01/18 13:44:35;;;;;;;0.00;0.00;;;7.50;99.90;;;;;;5052345;28;20044;-87
2022/01/18 13:47:19;;;;;;;0.10;0.10;;;7.50;99.90;;;;;;5035576;28;20045;-87
2022/01/18 13:49:45;;;;;;;0.00;0.00;;;7.50;99.90;;;;;;5036026;28;20052;-87
2022/01/18 13:52:14;;;;;;;0.08;0.00;;;7.50;99.90;;;;;;5052634;28;20048;-87
2022/01/18 13:54:50;;;;;;;0.10;0.10;;;7.50;99.90;;;;;;5035659;28;20511;-87
2022/01/18 13:57:21;;;;;;;0.00;0.00;;;7.50;99.90;;;;;;5035800;28;20092;-87
2022/01/18 13:59:49;;;;;;;0.10;0.10;;;7.50;99.90;;;;;;5035830;28;20073;-87
2022/01/18 14:02:22;;;;;;;12.15;1.23;;;7.50;99.90;;;;;;5035881;28;20114;-87
2022/01/18 14:05:06;;;;;;;0.30;0.30;;;7.50;99.90;;;;;;5035566;28;20045;-87
2022/01/18 14:07:31;;;;;;;0.00;0.00;;;7.50;99.90;;;;;;5035964;28;20045;-88
2022/01/18 14:10:03;;;;;;;1.00;0.30;;;7.50;99.90;;;;;;5035663;28;20059;-87
2022/01/18 14:12:34;;;;;;;0.00;0.00;;;7.60;99.90;;;;;;5035035;28;20048;-87
2022/01/18 14:15:00;;;;;;;0.00;0.00;;;7.50;99.90;;;;;;5035906;28;20166;-87
2022/01/18 14:17:26;;;;;;;0.75;0.22;;;7.40;99.90;;;;;;5035369;28;20173;-87
2022/01/18 14:20:08;;;;;;;0.00;0.00;;;7.40;99.90;;;;;;5035698;28;20048;-87
2022/01/18 14:22:40;;;;;;;0.00;0.00;;;7.40;99.90;;;;;;5035144;28;20053;-88
2022/01/18 14:25:08;;;;;;;0.13;0.13;;;7.40;99.90;;;;;;5051988;28;20052;-87
2022/01/18 14:27:43;;;;;;;0.55;0.10;;;7.30;99.90;;;;;;5054512;28;20049;-87
2022/01/18 14:30:10;;;;;;;0.00;0.00;;;7.10;99.90;;;;;;5055980;28;20508;-88
2022/01/18 14:32:41;;;;;;;0.10;0.00;;;7.30;99.90;;;;;;5055990;28;20053;-88
2022/01/18 14:35:15;;;;;;;0.00;0.00;;;7.20;99.90;;;;;;5040724;28;20138;-88